Time;durP1;ratioP1;P1;durP2;ratioP2;P2;SDS_P1;SDS_P2;PMS_P1;PMS_P2;Temp;Humidity;BMP_temperature;BMP_pressure;BME280_temperature;BME280_humidity;BME280_pressure;Samples;Min_cycle;Max_cycle;Signal;HPM_P1;HPM_P2
2022/01/20 10:35:52;;;;;;;182.82;135.50;;;21.50;40.40;;;;;;4924291;52;27994;-33
2022/01/20 10:40:59;;;;;;;182.43;140.68;;;21.60;40.60;;;;;;4921470;52;21021;-38
2022/01/20 10:46:08;;;;;;;179.23;139.65;;;21.60;41.00;;;;;;4905887;52;21494;-47
2022/01/20 10:51:16;;;;;;;192.87;146.20;;;21.60;40.40;;;;;;4905648;53;21541;-40
2022/01/20 10:56:20;;;;;;;189.62;144.05;;;21.60;40.20;;;;;;4941280;52;21684;-34
2022/01/20 11:01:21;;;;;;;198.38;150.43;;;21.70;40.20;;;;;;4918144;52;21498;-46
2022/01/20 11:06:22;;;;;;;201.98;152.15;;;21.60;39.90;;;;;;4933087;52;21051;-31
2022/01/20 11:11:23;;;;;;;195.93;149.38;;;21.60;39.80;;;;;;4919355;52;21040;-40
2022/01/20 11:16:24;;;;;;;201.73;153.57;;;21.60;39.80;;;;;;4905530;56;21459;-36
2022/01/20 11:21:26;;;;;;;212.15;158.15;;;21.60;39.70;;;;;;4908893;52;21021;-41
2022/01/20 11:26:26;;;;;;;207.10;159.55;;;21.70;39.90;;;;;;4916273;52;21048;-38
2022/01/20 11:31:34;;;;;;;204.95;156.45;;;21.70;40.00;;;;;;4918422;52;21009;-38
2022/01/20 11:36:34;;;;;;;210.75;161.15;;;21.70;40.20;;;;;;4906713;52;22243;-46
2022/01/20 11:41:48;;;;;;;213.77;163.52;;;21.80;40.40;;;;;;4975274;53;21060;-36
2022/01/20 11:46:52;;;;;;;221.02;170.60;;;21.80;40.60;;;;;;4947621;53;21490;-36
2022/01/20 11:51:56;;;;;;;214.60;165.05;;;21.80;40.80;;;;;;4917313;53;21463;-33
2022/01/20 11:57:16;;;;;;;224.93;171.23;;;21.90;40.90;;;;;;4936996;53;21491;-33
2022/01/20 12:04:09;;;;;;;228.85;172.23;;;21.90;41.10;;;;;;4931805;53;21506;-31
2022/01/20 12:09:12;;;;;;;224.23;173.90;;;21.90;41.30;;;;;;4903731;53;21001;-33
2022/01/20 12:14:24;;;;;;;226.93;177.68;;;22.00;41.60;;;;;;4928419;53;21041;-33
2022/01/20 12:19:26;;;;;;;240.65;183.43;;;22.00;41.70;;;;;;4920877;53;21052;-34
2022/01/20 12:24:26;;;;;;;244.13;189.73;;;22.00;41.70;;;;;;4919219;53;21076;-31
2022/01/20 12:29:37;;;;;;;237.77;186.00;;;22.00;41.40;;;;;;4911304;53;21962;-33
2022/01/20 12:34:38;;;;;;;238.93;193.70;;;21.90;41.20;;;;;;4905779;53;21008;-33
2022/01/20 12:39:40;;;;;;;254.18;201.23;;;22.00;41.20;;;;;;4947750;53;21546;-33
2022/01/20 12:44:50;;;;;;;258.13;202.75;;;22.00;41.00;;;;;;4917276;53;21064;-32
2022/01/20 12:49:59;;;;;;;252.62;204.25;;;22.00;41.10;;;;;;4903464;54;20998;-35
2022/01/20 12:54:59;;;;;;;259.23;208.15;;;22.00;41.30;;;;;;4903877;56;20981;-36
2022/01/20 13:00:04;;;;;;;260.63;208.32;;;22.00;41.20;;;;;;4951389;53;21002;-39
2022/01/20 13:05:07;;;;;;;279.23;224.57;;;22.00;41.20;;;;;;4901938;54;21175;-37
2022/01/20 13:10:21;;;;;;;301.58;244.40;;;22.00;41.10;;;;;;4938371;53;21046;-34
2022/01/20 13:15:24;;;;;;;302.35;244.05;;;22.00;40.60;;;;;;4945861;53;21004;-36
2022/01/20 13:20:25;;;;;;;293.50;235.45;;;22.10;40.90;;;;;;4921776;53;21528;-34
2022/01/20 13:25:29;;;;;;;292.83;238.10;;;22.10;41.20;;;;;;4902256;53;21077;-33
2022/01/20 13:30:36;;;;;;;298.33;238.43;;;22.10;41.40;;;;;;4792133;53;21023;-35
2022/01/20 13:35:38;;;;;;;;;;;22.20;41.50;;;;;;4719046;55;21554;-31
2022/01/20 13:40:43;;;;;;;291.10;238.25;;;22.20;41.70;;;;;;4712735;55;20318;-40
2022/01/20 13:45:46;;;;;;;290.92;233.82;;;22.20;41.80;;;;;;4709606;55;21560;-36
2022/01/20 13:50:55;;;;;;;283.70;230.52;;;22.30;42.20;;;;;;4700506;59;21019;-38
2022/01/20 13:56:00;;;;;;;289.23;235.50;;;22.30;42.30;;;;;;4719436;54;21071;-40
2022/01/20 14:01:08;;;;;;;300.83;236.90;;;22.30;42.40;;;;;;4706966;55;21035;-36
2022/01/20 14:06:09;;;;;;;290.87;236.80;;;22.30;42.50;;;;;;4704131;55;21003;-37
2022/01/20 14:11:10;;;;;;;284.45;231.15;;;22.30;42.60;;;;;;4721839;55;21079;-37
2022/01/20 14:16:11;;;;;;;280.65;232.82;;;22.30;42.70;;;;;;4710304;55;21042;-43
2022/01/20 14:21:15;;;;;;;294.92;240.55;;;22.40;42.90;;;;;;4726014;55;21146;-42
2022/01/20 14:26:23;;;;;;;292.27;242.45;;;22.40;43.00;;;;;;4708345;55;21023;-44
2022/01/20 14:31:25;;;;;;;299.12;240.65;;;22.40;43.10;;;;;;4703351;55;21472;-39
2022/01/20 14:36:25;;;;;;;288.05;234.43;;;22.40;43.20;;;;;;4715705;55;21083;-34
2022/01/20 14:41:29;;;;;;;285.88;237.45;;;22.40;43.30;;;;;;4700507;56;21159;-38
2022/01/20 14:46:30;;;;;;;292.08;239.05;;;22.40;43.30;;;;;;4700732;57;21580;-43
2022/01/20 14:51:31;;;;;;;298.62;243.35;;;22.50;43.50;;;;;;4724723;55;21083;-35
2022/01/20 14:56:32;;;;;;;294.08;243.73;;;22.50;43.50;;;;;;4709164;55;21576;-32
2022/01/20 15:01:33;;;;;;;302.10;247.70;;;22.50;43.60;;;;;;4699715;59;21616;-30
2022/01/20 15:06:34;;;;;;;296.10;246.07;;;22.50;43.60;;;;;;4710706;55;21485;-35
2022/01/20 15:11:36;;;;;;;292.23;240.82;;;22.50;43.40;;;;;;4706729;55;21032;-35
2022/01/20 15:16:37;;;;;;;295.25;240.10;;;22.50;43.40;;;;;;4734395;55;21043;-39
2022/01/20 15:21:38;;;;;;;296.83;247.27;;;22.50;43.30;;;;;;4700790;56;21061;-38
2022/01/20 15:26:41;;;;;;;302.55;243.70;;;22.40;43.10;;;;;;4711070;55;21502;-37
2022/01/20 15:31:42;;;;;;;294.73;242.62;;;22.40;43.00;;;;;;4719411;55;21489;-38
2022/01/20 15:36:45;;;;;;;303.20;248.32;;;22.40;42.80;;;;;;4734011;55;21079;-33
2022/01/20 15:41:51;;;;;;;306.70;250.05;;;22.40;42.60;;;;;;4716165;55;21070;-36
2022/01/20 15:46:52;;;;;;;302.65;244.70;;;22.40;42.40;;;;;;4727654;55;21062;-35
2022/01/20 15:51:52;;;;;;;307.75;255.60;;;22.40;42.30;;;;;;4747137;55;21087;-32
2022/01/20 15:56:53;;;;;;;315.60;257.27;;;22.40;42.20;;;;;;4728335;55;21048;-33
2022/01/20 16:01:54;;;;;;;312.35;256.38;;;22.40;42.10;;;;;;4712450;55;21103;-36
2022/01/20 16:06:55;;;;;;;320.30;259.62;;;22.30;41.90;;;;;;4703773;55;21496;-30
2022/01/20 16:11:56;;;;;;;314.20;258.52;;;22.40;41.80;;;;;;4723902;55;21020;-30
2022/01/20 16:16:59;;;;;;;314.45;260.17;;;22.30;41.70;;;;;;4711783;55;21106;-34
2022/01/20 16:22:00;;;;;;;318.27;259.20;;;22.40;41.60;;;;;;4722246;55;21844;-34
2022/01/20 16:27:01;;;;;;;327.80;267.35;;;22.30;41.50;;;;;;4709420;55;20995;-32
2022/01/20 16:32:02;;;;;;;318.10;257.40;;;22.40;41.40;;;;;;4722148;55;21018;-34
2022/01/20 16:37:04;;;;;;;312.95;250.40;;;22.30;41.20;;;;;;4712518;55;21027;-40
2022/01/20 16:42:06;;;;;;;317.50;258.58;;;22.30;41.20;;;;;;4715095;55;21560;-34
2022/01/20 16:47:07;;;;;;;312.73;255.65;;;22.40;41.10;;;;;;4705378;55;21356;-34
2022/01/20 16:52:08;;;;;;;310.05;259.08;;;22.30;41.00;;;;;;4701169;59;21141;-37
2022/01/20 16:57:09;;;;;;;321.85;260.88;;;22.30;40.90;;;;;;4718685;55;21160;-38
2022/01/20 17:02:12;;;;;;;326.58;266.40;;;22.30;40.80;;;;;;4704351;55;21138;-32
2022/01/20 17:07:14;;;;;;;331.45;265.73;;;22.30;40.70;;;;;;4702024;55;21627;-37
2022/01/20 17:12:17;;;;;;;330.87;267.40;;;22.30;41.00;;;;;;4701415;55;21466;-34
2022/01/20 17:17:20;;;;;;;325.25;266.48;;;22.30;40.90;;;;;;4700716;55;21596;-40
2022/01/20 17:22:21;;;;;;;317.90;258.02;;;22.30;40.80;;;;;;4708478;55;21103;-38
2022/01/20 17:27:22;;;;;;;319.40;260.50;;;22.30;40.80;;;;;;4718604;55;21509;-34
2022/01/20 17:32:23;;;;;;;322.67;264.73;;;22.30;40.60;;;;;;4724413;55;21087;-36
2022/01/20 17:37:24;;;;;;;326.15;266.60;;;22.40;40.60;;;;;;4714747;55;21067;-39
2022/01/20 17:42:26;;;;;;;328.45;264.33;;;22.40;40.50;;;;;;4702033;55;21143;-34
2022/01/20 17:47:26;;;;;;;324.33;261.45;;;22.40;40.40;;;;;;4715225;55;21126;-38
2022/01/20 17:52:27;;;;;;;321.70;264.70;;;22.40;40.40;;;;;;4705156;55;21540;-36
2022/01/20 17:57:28;;;;;;;312.80;259.23;;;22.40;40.30;;;;;;4707067;54;21003;-37
2022/01/20 18:02:29;;;;;;;307.42;248.80;;;22.40;40.00;;;;;;4733827;55;21028;-34
2022/01/20 18:07:30;;;;;;;313.75;258.40;;;22.40;40.20;;;;;;4710654;55;21122;-34
2022/01/20 18:12:31;;;;;;;326.40;264.12;;;22.40;40.20;;;;;;4710575;55;21075;-33
2022/01/20 18:17:32;;;;;;;317.17;257.77;;;22.40;40.20;;;;;;4716868;55;21015;-34
2022/01/20 18:22:33;;;;;;;303.35;248.55;;;22.40;40.10;;;;;;4739538;55;21047;-37
2022/01/20 18:27:34;;;;;;;312.60;252.15;;;22.40;40.10;;;;;;4703059;55;21925;-34
2022/01/20 18:32:36;;;;;;;300.58;245.30;;;22.40;40.00;;;;;;4718265;55;21150;-39
2022/01/20 18:37:37;;;;;;;304.92;251.40;;;22.40;40.00;;;;;;4758605;55;21003;-36
2022/01/20 18:42:38;;;;;;;297.15;249.25;;;22.40;40.00;;;;;;4726561;55;21361;-37
2022/01/20 18:47:39;;;;;;;302.35;248.50;;;22.40;39.90;;;;;;4710219;55;21004;-36
2022/01/20 18:52:40;;;;;;;308.35;249.75;;;22.40;39.90;;;;;;4712473;55;21091;-37
2022/01/20 18:57:41;;;;;;;298.35;245.98;;;22.40;39.90;;;;;;4724668;55;21063;-33
2022/01/20 19:02:43;;;;;;;302.10;246.18;;;22.50;40.00;;;;;;4710631;55;21091;-39
2022/01/20 19:07:45;;;;;;;303.77;246.15;;;22.40;39.80;;;;;;4705973;55;21083;-35
2022/01/20 19:12:47;;;;;;;301.67;248.80;;;22.40;39.80;;;;;;4723186;55;21019;-35
2022/01/20 19:17:49;;;;;;;280.52;229.87;;;22.50;39.80;;;;;;4702211;55;21074;-32
2022/01/20 19:22:49;;;;;;;283.15;230.35;;;22.50;39.80;;;;;;4722985;55;21055;-33
2022/01/20 19:27:51;;;;;;;295.33;244.70;;;22.50;40.20;;;;;;4700912;59;21083;-44
2022/01/20 19:32:52;;;;;;;278.92;231.45;;;22.50;39.80;;;;;;4757949;55;21031;-38
2022/01/20 19:37:53;;;;;;;288.80;238.35;;;22.50;39.80;;;;;;4714325;55;21038;-32
2022/01/20 19:42:54;;;;;;;280.15;230.07;;;22.50;39.80;;;;;;4703169;55;21657;-36
2022/01/20 19:47:57;;;;;;;287.15;233.75;;;22.50;39.80;;;;;;4742087;55;21007;-34
2022/01/20 19:52:58;;;;;;;284.13;229.87;;;22.50;39.80;;;;;;4752215;55;22258;-37
2022/01/20 19:57:59;;;;;;;276.75;228.10;;;22.50;39.70;;;;;;4718930;54;21516;-38
2022/01/20 20:03:09;;;;;;;280.85;228.50;;;22.50;39.70;;;;;;4727763;55;21035;-40
2022/01/20 20:08:12;;;;;;;272.15;221.37;;;22.60;39.80;;;;;;4703912;55;21553;-37
2022/01/20 20:13:13;;;;;;;270.33;220.27;;;22.50;39.70;;;;;;4722707;55;21015;-37
2022/01/20 20:18:14;;;;;;;274.17;225.85;;;22.50;39.80;;;;;;4737173;55;21506;-33
2022/01/20 20:23:15;;;;;;;269.62;221.55;;;22.60;39.70;;;;;;4711258;55;21533;-36
2022/01/20 20:28:16;;;;;;;263.85;216.57;;;22.60;39.70;;;;;;4735792;55;21525;-32
2022/01/20 20:33:17;;;;;;;267.10;218.90;;;22.60;39.70;;;;;;4713890;55;21072;-39
2022/01/20 20:38:18;;;;;;;264.75;213.73;;;22.60;39.80;;;;;;4737661;55;21039;-35
2022/01/20 20:43:20;;;;;;;260.10;211.68;;;22.60;39.70;;;;;;4700201;59;21462;-35
2022/01/20 20:48:20;;;;;;;259.95;216.00;;;22.60;39.70;;;;;;4735142;55;20995;-32
2022/01/20 20:53:21;;;;;;;259.62;215.77;;;22.60;39.70;;;;;;4718954;54;21490;-37
2022/01/20 20:58:22;;;;;;;257.85;211.23;;;22.60;39.70;;;;;;4701329;55;21142;-36
2022/01/20 21:03:23;;;;;;;256.95;209.95;;;22.60;39.70;;;;;;4703748;55;21105;-35
2022/01/20 21:08:25;;;;;;;248.93;203.35;;;22.60;39.60;;;;;;4732092;55;21058;-38
2022/01/20 21:13:26;;;;;;;246.35;200.57;;;22.60;39.60;;;;;;4744491;55;21482;-37
2022/01/20 21:18:28;;;;;;;245.40;203.50;;;22.60;39.60;;;;;;4739019;55;21636;-37
2022/01/20 21:23:29;;;;;;;242.68;198.30;;;22.60;39.60;;;;;;4699835;59;21525;-36
2022/01/20 21:28:30;;;;;;;236.37;193.80;;;22.60;39.60;;;;;;4711263;55;21134;-32
2022/01/20 21:33:41;;;;;;;232.30;188.85;;;22.60;39.60;;;;;;4725867;55;21087;-31
2022/01/20 21:38:46;;;;;;;231.18;189.77;;;22.60;39.60;;;;;;4720236;55;21509;-36
2022/01/20 21:43:48;;;;;;;228.05;187.52;;;22.60;39.60;;;;;;4727678;55;21087;-36
2022/01/20 21:48:50;;;;;;;232.32;185.43;;;22.60;39.60;;;;;;4701385;55;21096;-34
2022/01/20 21:53:51;;;;;;;229.60;188.02;;;22.60;39.50;;;;;;4737655;55;21036;-35
2022/01/20 21:58:53;;;;;;;218.07;177.57;;;22.60;39.50;;;;;;4732656;55;21458;-34
2022/01/20 22:03:54;;;;;;;216.52;171.93;;;22.60;39.50;;;;;;4699812;59;21520;-37
2022/01/20 22:08:56;;;;;;;215.80;171.98;;;22.60;39.40;;;;;;4725479;55;21115;-40
2022/01/20 22:13:58;;;;;;;213.00;174.07;;;22.60;39.40;;;;;;4729632;55;21003;-37
2022/01/20 22:18:59;;;;;;;211.20;171.37;;;22.70;39.40;;;;;;4729376;55;21580;-38
2022/01/20 22:24:01;;;;;;;210.15;168.18;;;22.60;39.30;;;;;;4752767;55;21047;-31
2022/01/20 22:29:02;;;;;;;203.75;165.43;;;22.60;39.30;;;;;;4726222;55;21449;-27
2022/01/20 22:34:03;;;;;;;202.93;166.32;;;22.60;39.40;;;;;;4793323;55;21002;-37
2022/01/20 22:39:05;;;;;;;200.77;157.60;;;22.50;39.40;;;;;;4701575;59;21079;-37
2022/01/20 22:44:06;;;;;;;194.37;158.73;;;22.50;39.50;;;;;;4725934;55;21047;-35
2022/01/20 22:49:10;;;;;;;190.27;153.38;;;22.50;39.50;;;;;;4700237;56;20995;-33
2022/01/20 22:54:12;;;;;;;190.57;150.62;;;22.50;39.50;;;;;;4702949;55;21469;-36
2022/01/20 22:59:13;;;;;;;187.70;150.62;;;22.50;39.50;;;;;;4700409;55;21136;-36
2022/01/20 23:04:14;;;;;;;188.40;152.15;;;22.40;39.50;;;;;;4732556;55;21055;-34
2022/01/20 23:09:15;;;;;;;181.12;146.48;;;22.40;39.50;;;;;;4751964;55;21465;-34
2022/01/20 23:14:19;;;;;;;179.68;143.35;;;22.40;39.40;;;;;;4746584;54;21130;-34
2022/01/20 23:24:54;;;;;;;177.40;143.57;;;22.40;39.40;;;;;;4739033;54;21071;-35
2022/01/20 23:29:55;;;;;;;169.70;140.95;;;22.40;39.30;;;;;;4707727;55;21064;-35
2022/01/20 23:34:56;;;;;;;168.02;135.02;;;22.40;39.30;;;;;;4703113;55;21007;-38
2022/01/20 23:39:57;;;;;;;162.15;133.50;;;22.40;39.30;;;;;;4711895;55;21511;-34
2022/01/20 23:45:18;;;;;;;168.62;137.23;;;22.40;39.30;;;;;;4710363;55;21141;-38
2022/01/20 23:50:19;;;;;;;157.52;127.30;;;22.40;39.20;;;;;;4706724;55;21521;-30
2022/01/20 23:55:20;;;;;;;156.10;131.20;;;22.40;39.20;;;;;;4714900;55;21581;-37
